Time;durP1;ratioP1;P1;durP2;ratioP2;P2;SDS_P1;SDS_P2;PMS_P1;PMS_P2;Temp;Humidity;BMP_temperature;BMP_pressure;BME280_temperature;BME280_humidity;BME280_pressure;Samples;Min_cycle;Max_cycle;Signal;HPM_P1;HPM_P2
2022/03/02 00:00:34;;;;;;;;;;;;;;;-1.71;52.57;101376.88;5562218;32;34411;-86
2022/03/02 00:03:39;;;;;;;;;;;;;;;-1.75;52.94;101372.66;5563327;32;35742;-86
2022/03/02 00:06:42;;;;;;;;;;;;;;;-1.76;53.06;101375.28;5562015;32;35365;-86
2022/03/02 00:09:45;;;;;;;;;;;;;;;-1.67;57.09;101374.19;5562059;32;34587;-86
2022/03/02 00:12:48;;;;;;;;;;;;;;;-1.78;57.37;101367.53;5562681;32;35316;-86
2022/03/02 00:15:51;;;;;;;;;;;;;;;-1.79;55.89;101359.78;5564156;32;35729;-86
2022/03/02 00:18:54;;;;;;;;;;;;;;;-1.66;55.75;101355.16;5567304;32;35685;-86
2022/03/02 00:21:58;;;;;;;;;;;;;;;-1.67;54.91;101359.50;5564957;32;35873;-86
2022/03/02 00:25:00;;;;;;;;;;;;;;;-1.77;55.92;101363.22;5563280;32;36972;-86
2022/03/02 00:28:06;;;;;;;;;;;;;;;-1.93;55.26;101363.53;5562497;32;34816;-86
2022/03/02 00:31:12;;;;;;;;;;;;;;;-2.09;56.43;101359.59;5562089;32;35326;-86
2022/03/02 00:34:17;;;;;;;;;;;;;;;-2.18;57.37;101358.91;5564204;32;34920;-86
2022/03/02 00:37:20;;;;;;;;;;;;;;;-2.26;58.69;101349.59;5561930;32;34638;-86
2022/03/02 00:40:22;;;;;;;;;;;;;;;-2.37;61.68;101352.41;5562640;32;34183;-86
2022/03/02 00:43:25;;;;;;;;;;;;;;;-2.51;61.61;101343.19;5563514;32;33977;-86
2022/03/02 00:46:29;;;;;;;;;;;;;;;-2.45;61.06;101343.94;5564074;32;34528;-86
2022/03/02 00:49:36;;;;;;;;;;;;;;;-2.49;60.97;101340.56;5563868;32;35531;-86
2022/03/02 00:52:38;;;;;;;;;;;;;;;-2.69;61.35;101333.19;5563038;32;34874;-86
2022/03/02 00:55:41;;;;;;;;;;;;;;;-2.88;61.32;101331.00;5563975;32;35860;-86
2022/03/02 00:58:44;;;;;;;;;;;;;;;-3.02;61.66;101325.22;5564438;32;34991;-86
2022/03/02 01:01:46;;;;;;;;;;;;;;;-3.14;61.67;101324.56;5565530;32;34915;-86
2022/03/02 01:04:49;;;;;;;;;;;;;;;-3.20;61.97;101318.63;5566697;32;34490;-86
2022/03/02 01:07:52;;;;;;;;;;;;;;;-3.23;62.47;101319.56;5564286;32;34746;-86
2022/03/02 01:10:55;;;;;;;;;;;;;;;-3.20;64.08;101311.72;5568232;31;35719;-86
2022/03/02 01:13:57;;;;;;;;;;;;;;;-3.22;64.70;101316.09;5567368;32;35765;-86
2022/03/02 01:17:00;;;;;;;;;;;;;;;-3.29;65.47;101306.69;5564783;32;34985;-86
2022/03/02 01:20:07;;;;;;;;;;;;;;;-3.31;67.48;101306.75;5563326;32;34828;-86
2022/03/02 01:23:10;;;;;;;;;;;;;;;-3.41;66.45;101298.28;5563662;32;34882;-86
2022/03/02 01:26:15;;;;;;;;;;;;;;;-3.52;65.64;101292.44;5563181;32;35241;-86
2022/03/02 01:29:34;;;;;;;;;;;;;;;-3.64;67.83;101283.16;5565735;32;35814;-86
2022/03/02 01:32:37;;;;;;;;;;;;;;;-3.66;66.32;101278.91;5563933;32;34311;-86
2022/03/02 01:35:42;;;;;;;;;;;;;;;-3.76;66.46;101283.38;5563483;32;35235;-86
2022/03/02 01:38:45;;;;;;;;;;;;;;;-3.69;64.41;101278.94;5563903;32;34666;-86
2022/03/02 01:41:48;;;;;;;;;;;;;;;-3.77;64.65;101273.91;5562966;32;34635;-86
2022/03/02 01:44:53;;;;;;;;;;;;;;;-3.80;65.61;101272.22;5562226;32;34379;-86
2022/03/02 01:48:00;;;;;;;;;;;;;;;-3.84;65.83;101269.72;5562166;32;34811;-86
2022/03/02 01:51:05;;;;;;;;;;;;;;;-3.73;65.13;101275.56;5562887;32;34910;-86
2022/03/02 01:54:23;;;;;;;;;;;;;;;-3.81;66.11;101275.69;5561699;32;35173;-86
2022/03/02 01:57:26;;;;;;;;;;;;;;;-3.79;65.29;101278.25;5562257;32;34843;-86
2022/03/02 02:00:30;;;;;;;;;;;;;;;-3.79;65.67;101270.47;5562556;32;34899;-86
2022/03/02 02:03:36;;;;;;;;;;;;;;;-3.53;65.27;101274.37;5563485;32;35349;-86
2022/03/02 02:06:38;;;;;;;;;;;;;;;-3.62;65.78;101265.03;5563186;32;35054;-86
2022/03/02 02:09:41;;;;;;;;;;;;;;;-3.77;68.59;101263.56;5563837;32;35045;-86
2022/03/02 02:12:44;;;;;;;;;;;;;;;-3.90;69.78;101265.50;5562769;32;35387;-86
2022/03/02 02:15:47;;;;;;;;;;;;;;;-4.03;70.60;101254.50;5562467;32;34675;-86
2022/03/02 02:18:50;;;;;;;;;;;;;;;-4.03;73.27;101257.06;5563480;32;34582;-86
2022/03/02 02:21:53;;;;;;;;;;;;;;;-3.99;75.76;101250.13;5549105;32;34833;-86
2022/03/02 02:24:55;;;;;;;;;;;;;;;-4.04;74.88;101253.66;5563506;32;34815;-86
2022/03/02 02:27:59;;;;;;;;;;;;;;;-4.07;74.36;101251.09;5564037;32;34570;-86
2022/03/02 02:31:02;;;;;;;;;;;;;;;-4.09;74.47;101250.28;5564535;32;35302;-86
2022/03/02 02:34:08;;;;;;;;;;;;;;;-4.01;75.06;101257.91;5564868;32;34644;-86
2022/03/02 02:37:12;;;;;;;;;;;;;;;-3.97;75.73;101253.53;5562377;32;34925;-86
2022/03/02 02:40:17;;;;;;;;;;;;;;;-3.99;75.95;101250.13;5563804;32;34624;-86
2022/03/02 02:43:23;;;;;;;;;;;;;;;-4.09;75.49;101250.28;5565311;32;34930;-86
2022/03/02 02:46:26;;;;;;;;;;;;;;;-4.05;68.92;101257.09;5564104;32;34916;-86
2022/03/02 02:49:29;;;;;;;;;;;;;;;-4.03;67.69;101255.34;5563115;32;34985;-86
2022/03/02 02:52:38;;;;;;;;;;;;;;;-4.13;69.36;101253.78;5564102;32;36201;-86
2022/03/02 02:55:41;;;;;;;;;;;;;;;-4.26;69.79;101241.94;5563268;32;36161;-86
2022/03/02 02:58:44;;;;;;;;;;;;;;;-4.32;69.39;101258.38;5563707;32;35177;-86
2022/03/02 03:01:46;;;;;;;;;;;;;;;-4.36;71.17;101252.41;5563907;32;35857;-86
2022/03/02 03:04:49;;;;;;;;;;;;;;;-4.52;71.24;101248.31;5562257;32;34639;-86
2022/03/02 03:07:56;;;;;;;;;;;;;;;-4.60;72.07;101242.44;5562430;32;35046;-86
2022/03/02 03:10:59;;;;;;;;;;;;;;;-4.65;72.54;101245.91;5562637;32;35740;-86
2022/03/02 03:14:15;;;;;;;;;;;;;;;-4.66;72.48;101251.94;5562054;32;35727;-86
2022/03/02 03:17:18;;;;;;;;;;;;;;;-4.69;72.11;101256.31;5562935;32;35140;-86
2022/03/02 03:20:24;;;;;;;;;;;;;;;-4.72;72.72;101251.16;5561690;32;34692;-86
2022/03/02 03:23:28;;;;;;;;;;;;;;;-4.70;72.82;101250.31;5561339;32;36654;-86
2022/03/02 03:26:31;;;;;;;;;;;;;;;-4.64;73.23;101246.78;5561503;32;34895;-86
2022/03/02 03:29:34;;;;;;;;;;;;;;;-4.62;72.92;101244.16;5561663;32;35753;-86
2022/03/02 03:32:39;;;;;;;;;;;;;;;-4.61;72.78;101251.88;5562593;32;35164;-86
2022/03/02 03:35:42;;;;;;;;;;;;;;;-4.50;71.60;101249.16;5561962;32;36756;-86
2022/03/02 03:38:45;;;;;;;;;;;;;;;-4.58;71.23;101245.84;5561764;32;35392;-86
2022/03/02 03:41:48;;;;;;;;;;;;;;;-4.63;71.61;101239.88;5562063;32;35452;-86
2022/03/02 03:44:52;;;;;;;;;;;;;;;-4.74;72.42;101240.87;5561776;32;35249;-86
2022/03/02 03:47:55;;;;;;;;;;;;;;;-4.79;72.39;101242.69;5562654;32;35308;-86
2022/03/02 03:50:59;;;;;;;;;;;;;;;-4.85;72.58;101243.63;5561939;32;36194;-86
2022/03/02 03:54:02;;;;;;;;;;;;;;;-4.54;69.18;101242.31;5561257;32;34937;-86
2022/03/02 03:57:05;;;;;;;;;;;;;;;-4.52;67.68;101250.91;5560774;32;35716;-86
2022/03/02 04:00:13;;;;;;;;;;;;;;;-4.37;67.24;101240.37;5561045;32;35395;-86
2022/03/02 04:03:20;;;;;;;;;;;;;;;-3.97;65.87;101238.03;5559400;32;34625;-86
2022/03/02 04:06:22;;;;;;;;;;;;;;;-4.10;66.05;101243.37;5559455;32;35124;-86
2022/03/02 04:09:25;;;;;;;;;;;;;;;-4.24;66.85;101240.19;5561637;32;35947;-86
2022/03/02 04:12:32;;;;;;;;;;;;;;;-4.20;68.44;101237.53;5560578;32;34746;-86
2022/03/02 04:15:35;;;;;;;;;;;;;;;-4.10;66.70;101234.78;5560306;32;35311;-86
2022/03/02 04:18:37;;;;;;;;;;;;;;;-4.05;66.54;101236.44;5561199;32;34559;-86
2022/03/02 04:21:40;;;;;;;;;;;;;;;-3.87;65.90;101229.22;5562293;32;35850;-86
2022/03/02 04:24:42;;;;;;;;;;;;;;;-3.92;66.31;101236.22;5560943;32;34807;-86
2022/03/02 04:27:45;;;;;;;;;;;;;;;-4.06;66.20;101234.72;5563094;32;35377;-86
2022/03/02 04:30:47;;;;;;;;;;;;;;;-4.04;67.29;101232.97;5562350;32;34816;-86
2022/03/02 04:33:50;;;;;;;;;;;;;;;-4.25;68.71;101234.16;5563187;32;35444;-86
2022/03/02 04:36:55;;;;;;;;;;;;;;;-4.40;68.60;101230.06;5562379;32;35011;-86
2022/03/02 04:39:58;;;;;;;;;;;;;;;-4.56;69.17;101231.19;5562268;32;34713;-86
2022/03/02 04:43:00;;;;;;;;;;;;;;;-4.66;69.10;101228.72;5544760;32;34535;-86
2022/03/02 04:46:03;;;;;;;;;;;;;;;-4.73;69.62;101215.94;5543059;32;34917;-86
2022/03/02 04:49:12;;;;;;;;;;;;;;;-4.78;70.68;101218.53;5544165;32;35810;-86
2022/03/02 04:52:15;;;;;;;;;;;;;;;-4.58;69.92;101214.84;5544195;32;34800;-86
2022/03/02 04:55:18;;;;;;;;;;;;;;;-4.62;70.47;101213.19;5544029;32;35139;-86
2022/03/02 04:58:23;;;;;;;;;;;;;;;-4.59;69.98;101213.97;5544264;32;35605;-86
2022/03/02 05:01:27;;;;;;;;;;;;;;;-4.43;69.26;101208.59;5544855;32;34551;-86
2022/03/02 05:04:30;;;;;;;;;;;;;;;-4.52;69.22;101204.41;5545330;32;35770;-86
2022/03/02 05:07:34;;;;;;;;;;;;;;;-4.60;69.68;101199.34;5544524;32;34963;-86
2022/03/02 05:10:39;;;;;;;;;;;;;;;-4.62;69.94;101197.69;5544945;32;35619;-86
2022/03/02 05:13:43;;;;;;;;;;;;;;;-4.55;70.01;101204.44;5544822;32;34480;-85
2022/03/02 05:16:45;;;;;;;;;;;;;;;-4.56;71.88;101197.59;5543735;32;35751;-86
2022/03/02 05:19:48;;;;;;;;;;;;;;;-4.54;73.90;101201.00;5530798;32;35782;-85
2022/03/02 05:22:54;;;;;;;;;;;;;;;-4.47;73.75;101200.06;5545311;32;35146;-85
2022/03/02 05:25:59;;;;;;;;;;;;;;;-4.46;75.06;101201.75;5546396;32;35234;-86
2022/03/02 05:29:03;;;;;;;;;;;;;;;-4.47;75.79;101207.81;5545250;32;34538;-85
2022/03/02 05:32:05;;;;;;;;;;;;;;;-4.50;76.38;101207.84;5544610;32;34600;-85
2022/03/02 05:35:08;;;;;;;;;;;;;;;-4.46;79.00;101204.34;5545187;32;35617;-86
2022/03/02 05:38:11;;;;;;;;;;;;;;;-4.45;77.74;101202.59;5543731;32;34793;-86
2022/03/02 05:41:14;;;;;;;;;;;;;;;-4.45;77.74;101195.72;5544811;32;35182;-85
2022/03/02 05:44:16;;;;;;;;;;;;;;;-4.36;77.32;101195.56;5543876;32;35810;-86
2022/03/02 05:47:19;;;;;;;;;;;;;;;-4.22;76.66;101197.06;5545526;32;35440;-86
2022/03/02 05:50:21;;;;;;;;;;;;;;;-4.27;75.89;101204.06;5544692;32;34106;-86
2022/03/02 05:53:24;;;;;;;;;;;;;;;-4.30;75.87;101202.38;5545061;32;35498;-85
2022/03/02 05:56:28;;;;;;;;;;;;;;;-4.15;75.71;101198.69;5550956;32;34177;-85
2022/03/02 05:59:34;;;;;;;;;;;;;;;-3.84;76.00;101187.81;5544908;32;34640;-86
2022/03/02 06:02:36;;;;;;;;;;;;;;;-3.53;76.21;101192.41;5557993;32;35486;-85
2022/03/02 06:05:40;;;;;;;;;;;;;;;-3.57;76.68;101193.37;5562915;32;34896;-86
2022/03/02 06:08:42;;;;;;;;;;;;;;;-3.62;77.95;101196.06;5562114;32;34776;-87
2022/03/02 06:11:46;;;;;;;;;;;;;;;-3.58;75.29;101194.25;5562969;32;34529;-86
2022/03/02 06:14:50;;;;;;;;;;;;;;;-3.58;73.41;101196.84;5562044;32;37221;-87
2022/03/02 06:17:53;;;;;;;;;;;;;;;-3.55;73.24;101191.62;5548624;32;36368;-86
2022/03/02 06:21:01;;;;;;;;;;;;;;;-3.51;71.32;101195.84;5563536;32;35556;-86
2022/03/02 06:24:05;;;;;;;;;;;;;;;-3.29;69.87;101200.59;5563381;32;34908;-87
2022/03/02 06:27:10;;;;;;;;;;;;;;;-3.28;69.78;101202.31;5563126;32;35891;-86
2022/03/02 06:30:14;;;;;;;;;;;;;;;-3.24;70.84;101214.31;5562537;32;35688;-86
2022/03/02 06:33:21;;;;;;;;;;;;;;;-3.22;72.75;101209.97;5563222;32;34781;-86
2022/03/02 06:36:28;;;;;;;;;;;;;;;-3.16;73.58;101202.06;5561357;32;34610;-86
2022/03/02 06:39:31;;;;;;;;;;;;;;;-3.02;72.59;101206.94;5562142;32;34816;-86
2022/03/02 06:42:59;;;;;;;;;;;;;;;-2.92;72.33;101198.97;5561502;32;34837;-85
2022/03/02 06:46:11;;;;;;;;;;;;;;;-2.83;72.22;101194.47;5561954;32;34471;-86
2022/03/02 06:49:23;;;;;;;;;;;;;;;-2.76;72.55;101202.13;5561690;32;34636;-86
2022/03/02 06:52:46;;;;;;;;;;;;;;;-2.64;71.30;101187.13;5560842;32;35313;-85
2022/03/02 06:55:49;;;;;;;;;;;;;;;-2.53;71.95;101192.06;5561881;32;34483;-86
2022/03/02 06:58:55;;;;;;;;;;;;;;;-2.41;71.68;101184.88;5561233;32;37325;-86
2022/03/02 07:02:03;;;;;;;;;;;;;;;-2.30;71.21;101180.31;5560716;32;34424;-86
2022/03/02 07:05:08;;;;;;;;;;;;;;;-2.15;69.13;101183.41;5561909;32;34305;-86
2022/03/02 07:08:15;;;;;;;;;;;;;;;-1.99;68.22;101179.56;5562096;32;34388;-86
2022/03/02 07:11:20;;;;;;;;;;;;;;;-1.65;66.27;101176.09;5562416;32;35550;-86
2022/03/02 07:14:26;;;;;;;;;;;;;;;-1.41;63.77;101178.91;5561993;32;34293;-86
2022/03/02 07:17:32;;;;;;;;;;;;;;;-1.28;61.99;101180.22;5562189;32;35942;-86
2022/03/02 07:20:41;;;;;;;;;;;;;;;-1.06;60.69;101174.41;5562176;32;34964;-86
2022/03/02 07:23:51;;;;;;;;;;;;;;;-0.85;59.97;101177.31;5534274;32;912435;-86
2022/03/02 07:26:57;;;;;;;;;;;;;;;-0.53;58.62;101170.25;5562825;32;35859;-86
2022/03/02 07:30:01;;;;;;;;;;;;;;;-0.45;58.25;101170.84;5562253;32;35743;-86
2022/03/02 07:33:06;;;;;;;;;;;;;;;-0.28;57.59;101172.91;5562074;32;35874;-86
2022/03/02 07:36:10;;;;;;;;;;;;;;;0.01;55.50;101167.62;5561944;32;35685;-86
2022/03/02 07:39:13;;;;;;;;;;;;;;;0.06;55.25;101160.50;5561246;32;35483;-87
2022/03/02 07:42:16;;;;;;;;;;;;;;;0.01;55.48;101158.06;5561160;32;35434;-86
2022/03/02 07:45:28;;;;;;;;;;;;;;;0.07;55.14;101162.22;5559294;32;35493;-86
2022/03/02 07:48:38;;;;;;;;;;;;;;;0.30;54.09;101149.25;5561048;32;34676;-86
2022/03/02 07:51:51;;;;;;;;;;;;;;;0.49;52.86;101159.03;5560100;32;34694;-86
2022/03/02 07:54:57;;;;;;;;;;;;;;;0.61;52.58;101136.88;5560188;32;34656;-87
2022/03/02 07:58:03;;;;;;;;;;;;;;;0.69;51.82;101123.59;5559482;32;35825;-87
2022/03/02 08:01:12;;;;;;;;;;;;;;;0.77;50.84;101131.94;5561992;32;35075;-87
2022/03/02 08:04:15;;;;;;;;;;;;;;;1.08;50.28;101130.78;5562178;32;34545;-87
2022/03/02 08:07:19;;;;;;;;;;;;;;;1.45;48.31;101129.31;5561931;32;36999;-87
2022/03/02 08:10:22;;;;;;;;;;;;;;;1.71;46.45;101127.41;5561233;32;35008;-87
2022/03/02 08:13:24;;;;;;;;;;;;;;;1.79;47.27;101121.87;5560992;32;35232;-87
2022/03/02 08:16:29;;;;;;;;;;;;;;;1.95;46.87;101127.28;5562674;32;34901;-88
2022/03/02 08:19:33;;;;;;;;;;;;;;;1.98;46.39;101121.91;5560639;32;34499;-87
2022/03/02 08:22:44;;;;;;;;;;;;;;;2.09;46.11;101130.16;5561531;32;34315;-87
2022/03/02 08:25:50;;;;;;;;;;;;;;;2.21;45.90;101127.91;5560342;32;34559;-87
2022/03/02 08:28:55;;;;;;;;;;;;;;;2.27;45.92;101122.44;5560443;32;35849;-87
2022/03/02 08:31:59;;;;;;;;;;;;;;;2.50;44.88;101117.97;5559939;32;34443;-87
2022/03/02 08:35:02;;;;;;;;;;;;;;;2.57;44.94;101115.00;5561803;32;35661;-87
2022/03/02 08:38:07;;;;;;;;;;;;;;;2.45;45.68;101105.94;5561487;32;35100;-86
2022/03/02 08:41:12;;;;;;;;;;;;;;;2.51;47.09;101103.97;5559043;32;34809;-86
2022/03/02 08:44:24;;;;;;;;;;;;;;;2.47;46.85;101111.94;5557486;32;34786;-87
2022/03/02 08:47:27;;;;;;;;;;;;;;;2.75;44.86;101104.63;5557383;32;34463;-87
2022/03/02 08:50:36;;;;;;;;;;;;;;;2.45;46.02;101102.50;5558607;32;34790;-86
2022/03/02 08:53:41;;;;;;;;;;;;;;;2.71;45.54;101101.31;5557930;32;34766;-87
2022/03/02 08:56:48;;;;;;;;;;;;;;;2.67;45.64;101099.75;5557163;32;34324;-87
2022/03/02 08:59:54;;;;;;;;;;;;;;;2.82;45.39;101102.56;5560280;32;35791;-86
2022/03/02 09:02:58;;;;;;;;;;;;;;;3.13;43.72;101090.66;5556791;32;34910;-88
2022/03/02 09:06:02;;;;;;;;;;;;;;;2.98;43.00;101090.50;5553974;32;35118;-88
2022/03/02 09:09:12;;;;;;;;;;;;;;;3.18;43.34;101083.44;5555605;32;34989;-87
2022/03/02 09:12:15;;;;;;;;;;;;;;;3.24;44.13;101085.75;5560166;32;35143;-87
2022/03/02 09:15:22;;;;;;;;;;;;;;;3.52;41.38;101087.84;5560351;32;35768;-87
2022/03/02 09:18:25;;;;;;;;;;;;;;;3.43;42.35;101084.87;5556279;32;34594;-87
2022/03/02 09:21:32;;;;;;;;;;;;;;;3.51;42.22;101087.94;5557219;32;34998;-87
2022/03/02 09:24:37;;;;;;;;;;;;;;;3.63;41.02;101079.50;5556346;32;34400;-86
2022/03/02 09:27:43;;;;;;;;;;;;;;;3.57;41.66;101079.78;5557268;32;34278;-87
2022/03/02 09:30:46;;;;;;;;;;;;;;;3.45;41.23;101070.78;5556649;32;34644;-87
2022/03/02 09:33:53;;;;;;;;;;;;;;;3.56;40.50;101078.09;5558418;32;34500;-87
2022/03/02 09:36:57;;;;;;;;;;;;;;;3.73;40.32;101074.63;5560181;32;34976;-87
2022/03/02 09:40:00;;;;;;;;;;;;;;;3.75;39.88;101067.53;5557354;32;34718;-88
2022/03/02 09:43:07;;;;;;;;;;;;;;;3.64;39.61;101062.88;5555257;32;34211;-87
2022/03/02 09:46:11;;;;;;;;;;;;;;;3.62;40.75;101069.06;5556345;32;34544;-87
2022/03/02 09:49:19;;;;;;;;;;;;;;;3.53;39.95;101063.38;5555440;32;34802;-87
2022/03/02 09:52:23;;;;;;;;;;;;;;;3.63;40.46;101057.69;5553848;32;34560;-88
2022/03/02 09:55:27;;;;;;;;;;;;;;;3.82;41.37;101053.22;5547586;32;34865;-88
2022/03/02 09:58:31;;;;;;;;;;;;;;;4.06;40.80;101049.41;5540892;32;33124;-87
2022/03/02 10:01:35;;;;;;;;;;;;;;;4.20;40.70;101041.66;5554152;32;34980;-87
2022/03/02 10:04:44;;;;;;;;;;;;;;;4.31;39.59;101041.94;5556133;32;35094;-87
2022/03/02 10:07:55;;;;;;;;;;;;;;;4.27;38.47;101043.03;5554514;32;35061;-87
2022/03/02 10:11:02;;;;;;;;;;;;;;;4.52;36.49;101030.34;5556419;32;34648;-87
2022/03/02 10:14:04;;;;;;;;;;;;;;;4.46;37.72;101026.28;5539155;32;34401;-87
2022/03/02 10:17:10;;;;;;;;;;;;;;;4.48;38.07;101027.06;5523342;32;34665;-87
2022/03/02 10:20:14;;;;;;;;;;;;;;;4.59;38.72;101026.47;5536161;32;35500;-87
2022/03/02 10:23:24;;;;;;;;;;;;;;;4.66;35.77;101019.97;5542167;32;34818;-87
2022/03/02 10:26:31;;;;;;;;;;;;;;;4.54;36.42;101024.13;5557533;32;34867;-87
2022/03/02 10:29:44;;;;;;;;;;;;;;;4.72;35.07;101016.16;5557273;32;35752;-87
2022/03/02 10:32:49;;;;;;;;;;;;;;;4.62;35.04;101029.78;5556319;32;34509;-87
2022/03/02 10:36:00;;;;;;;;;;;;;;;4.73;34.31;101009.97;5557061;32;34954;-87
2022/03/02 10:39:05;;;;;;;;;;;;;;;4.80;34.01;101011.31;5554579;32;34916;-87
2022/03/02 10:42:13;;;;;;;;;;;;;;;4.87;34.33;101010.06;5555177;32;34841;-88
2022/03/02 10:45:19;;;;;;;;;;;;;;;4.96;34.27;101011.28;5541125;32;36980;-88
2022/03/02 10:48:29;;;;;;;;;;;;;;;4.79;34.70;101001.75;5553969;32;34250;-88
2022/03/02 10:51:49;;;;;;;;;;;;;;;4.97;34.40;100994.62;5556960;32;34718;-87
2022/03/02 10:54:55;;;;;;;;;;;;;;;4.93;35.22;100983.47;5554862;32;34527;-87
2022/03/02 10:58:00;;;;;;;;;;;;;;;5.03;35.72;100957.56;5555850;32;34649;-87
2022/03/02 11:01:03;;;;;;;;;;;;;;;5.22;33.91;100962.59;5556398;32;34238;-87
2022/03/02 11:04:06;;;;;;;;;;;;;;;5.21;34.21;100963.53;5556509;32;34600;-87
2022/03/02 11:07:14;;;;;;;;;;;;;;;5.18;34.07;100958.44;5554905;32;34341;-87
2022/03/02 11:10:33;;;;;;;;;;;;;;;4.92;34.18;100954.72;5555003;32;35302;-87
2022/03/02 11:13:37;;;;;;;;;;;;;;;5.16;34.38;100951.63;5550925;32;34856;-87
2022/03/02 11:16:46;;;;;;;;;;;;;;;5.10;34.53;100953.66;5533722;32;35104;-88
2022/03/02 11:19:49;;;;;;;;;;;;;;;5.43;34.18;100948.28;5533839;32;34140;-88
2022/03/02 11:22:56;;;;;;;;;;;;;;;5.54;34.25;100943.22;5534068;32;34339;-88
2022/03/02 11:26:04;;;;;;;;;;;;;;;5.62;34.77;100932.25;5535142;32;34832;-87
2022/03/02 11:29:12;;;;;;;;;;;;;;;5.46;34.30;100927.94;5534407;32;34817;-88
2022/03/02 11:32:17;;;;;;;;;;;;;;;5.85;34.16;100923.81;5538542;32;34973;-86
2022/03/02 11:35:23;;;;;;;;;;;;;;;5.84;33.15;100927.38;5539154;32;34502;-87
2022/03/02 11:38:30;;;;;;;;;;;;;;;5.73;33.61;100914.06;5537737;32;34592;-86
2022/03/02 11:41:34;;;;;;;;;;;;;;;5.79;33.03;100908.44;5535949;32;34517;-87
2022/03/02 11:44:41;;;;;;;;;;;;;;;5.76;33.16;100910.41;5535278;32;34623;-87
2022/03/02 11:47:53;;;;;;;;;;;;;;;5.80;32.96;100909.28;5536590;32;34710;-87
2022/03/02 11:51:03;;;;;;;;;;;;;;;5.78;33.09;100906.75;5537070;32;34797;-86
2022/03/02 11:54:09;;;;;;;;;;;;;;;5.93;32.25;100904.09;5538855;32;34678;-86
2022/03/02 11:57:13;;;;;;;;;;;;;;;5.93;32.10;100894.44;5522790;32;34840;-87
2022/03/02 12:00:19;;;;;;;;;;;;;;;5.93;32.03;100897.06;5537986;32;35303;-87
2022/03/02 12:03:25;;;;;;;;;;;;;;;5.88;32.45;100886.88;5538660;32;34473;-87
2022/03/02 12:06:29;;;;;;;;;;;;;;;5.99;32.80;100882.72;5539578;32;35064;-90
2022/03/02 12:09:34;;;;;;;;;;;;;;;6.00;32.57;100874.75;5539550;32;34852;-85
2022/03/02 12:12:44;;;;;;;;;;;;;;;6.09;32.01;100875.97;5537573;32;34746;-87
2022/03/02 12:15:53;;;;;;;;;;;;;;;5.96;32.71;100869.78;5539054;32;34993;-87
2022/03/02 12:18:56;;;;;;;;;;;;;;;6.27;32.41;100873.94;5536155;32;34871;-87
2022/03/02 12:22:03;;;;;;;;;;;;;;;6.29;32.30;100873.84;5537801;32;35201;-87
2022/03/02 12:25:15;;;;;;;;;;;;;;;6.33;32.74;100859.56;5537802;32;34653;-87
2022/03/02 12:28:22;;;;;;;;;;;;;;;6.44;32.15;100864.97;5538926;32;35378;-86
2022/03/02 12:31:33;;;;;;;;;;;;;;;6.46;32.88;100849.94;5539252;32;34450;-87
2022/03/02 12:34:39;;;;;;;;;;;;;;;6.51;32.25;100854.03;5539151;32;34459;-87
2022/03/02 12:37:42;;;;;;;;;;;;;;;6.34;32.73;100845.47;5535679;32;34601;-87
2022/03/02 12:40:46;;;;;;;;;;;;;;;6.19;33.11;100847.31;5536861;32;34807;-87
2022/03/02 12:43:49;;;;;;;;;;;;;;;6.39;33.75;100847.81;5535954;32;34637;-88
2022/03/02 12:46:57;;;;;;;;;;;;;;;6.55;33.39;100837.13;5534845;32;35625;-87
2022/03/02 12:50:02;;;;;;;;;;;;;;;6.64;33.57;100836.50;5536103;32;35782;-87
2022/03/02 12:53:06;;;;;;;;;;;;;;;6.84;32.42;100826.41;5536027;32;35817;-87
2022/03/02 12:56:08;;;;;;;;;;;;;;;6.77;32.16;100831.25;5535681;32;34814;-87
2022/03/02 12:59:13;;;;;;;;;;;;;;;6.70;32.71;100822.09;5535110;32;35162;-86
2022/03/02 13:02:17;;;;;;;;;;;;;;;6.57;33.69;100817.66;5534803;32;34422;-87
2022/03/02 13:05:28;;;;;;;;;;;;;;;6.52;33.68;100805.78;5535458;32;35546;-87
2022/03/02 13:08:39;;;;;;;;;;;;;;;6.34;33.29;100813.94;5548486;32;34562;-87
2022/03/02 13:11:44;;;;;;;;;;;;;;;6.46;33.58;100802.63;5554203;32;34672;-87
2022/03/02 13:14:48;;;;;;;;;;;;;;;6.48;33.64;100805.12;5553381;32;34721;-87
2022/03/02 13:18:09;;;;;;;;;;;;;;;6.48;34.06;100798.06;5555081;32;35284;-87
2022/03/02 13:21:18;;;;;;;;;;;;;;;6.59;34.95;100796.50;5556167;32;35227;-87
2022/03/02 13:24:21;;;;;;;;;;;;;;;6.82;35.13;100786.22;5554172;32;34464;-87
2022/03/02 13:27:26;;;;;;;;;;;;;;;6.60;34.60;100782.44;5555384;32;34742;-87
2022/03/02 13:30:32;;;;;;;;;;;;;;;6.70;34.99;100772.97;5555068;32;34646;-87
2022/03/02 13:33:55;;;;;;;;;;;;;;;6.77;35.27;100763.72;5553563;32;34898;-87
2022/03/02 13:37:02;;;;;;;;;;;;;;;7.03;34.38;100773.41;5539057;32;34458;-87
2022/03/02 13:40:05;;;;;;;;;;;;;;;7.06;34.38;100763.50;5538536;32;35578;-87
2022/03/02 13:43:11;;;;;;;;;;;;;;;6.78;34.65;100754.91;5543503;32;33985;-87
2022/03/02 13:46:14;;;;;;;;;;;;;;;7.03;34.34;100763.72;5536554;32;34974;-88
2022/03/02 13:49:20;;;;;;;;;;;;;;;7.02;35.13;100756.78;5536937;32;34422;-89
2022/03/02 13:52:26;;;;;;;;;;;;;;;6.88;34.69;100760.34;5548747;32;35088;-88
2022/03/02 13:55:37;;;;;;;;;;;;;;;6.74;34.39;100753.41;5555821;32;35347;-88
2022/03/02 13:58:48;;;;;;;;;;;;;;;6.93;34.21;100754.75;5551428;32;35277;-88
2022/03/02 14:01:51;;;;;;;;;;;;;;;6.82;35.38;100749.41;5554731;32;33780;-88
2022/03/02 14:04:54;;;;;;;;;;;;;;;6.66;34.97;100745.22;5555523;32;34942;-88
2022/03/02 14:08:03;;;;;;;;;;;;;;;6.56;34.83;100749.44;5556247;32;35328;-88
2022/03/02 14:11:06;;;;;;;;;;;;;;;6.61;35.90;100734.16;5556654;32;35392;-88
2022/03/02 14:14:17;;;;;;;;;;;;;;;6.70;35.45;100730.06;5556178;32;35004;-88
2022/03/02 14:17:20;;;;;;;;;;;;;;;6.61;35.01;100724.50;5553556;32;34085;-88
2022/03/02 14:20:24;;;;;;;;;;;;;;;6.71;35.32;100722.06;5555287;32;35092;-87
2022/03/02 14:23:27;;;;;;;;;;;;;;;6.62;35.18;100733.22;5541496;32;34758;-88
2022/03/02 14:26:30;;;;;;;;;;;;;;;6.55;35.64;100726.72;5539272;32;34724;-88
2022/03/02 14:29:34;;;;;;;;;;;;;;;6.64;36.15;100726.06;5536375;32;35110;-88
2022/03/02 14:32:40;;;;;;;;;;;;;;;6.51;36.46;100725.22;5536708;32;35341;-88
2022/03/02 14:35:44;;;;;;;;;;;;;;;6.58;36.07;100729.97;5537507;32;34988;-88
2022/03/02 14:38:48;;;;;;;;;;;;;;;6.53;36.53;100723.34;5537163;32;34935;-88
2022/03/02 14:41:51;;;;;;;;;;;;;;;6.57;35.87;100727.44;5550135;32;35580;-88
2022/03/02 14:45:06;;;;;;;;;;;;;;;6.62;36.37;100715.69;5555461;32;34633;-87
2022/03/02 14:48:35;;;;;;;;;;;;;;;6.58;36.73;100719.44;5556431;32;34890;-87
2022/03/02 14:51:44;;;;;;;;;;;;;;;6.46;36.78;100715.88;5554987;32;34803;-88
2022/03/02 14:54:47;;;;;;;;;;;;;;;6.32;37.55;100723.84;5548083;32;35087;-87
2022/03/02 14:57:49;;;;;;;;;;;;;;;6.25;37.54;100720.78;5555212;32;35175;-88
2022/03/02 15:00:59;;;;;;;;;;;;;;;6.18;37.78;100720.34;5554835;32;34759;-88
2022/03/02 15:04:03;;;;;;;;;;;;;;;6.11;37.77;100710.34;5555748;32;34931;-87
2022/03/02 15:07:06;;;;;;;;;;;;;;;6.09;37.86;100715.72;5554960;32;35071;-87
2022/03/02 15:10:10;;;;;;;;;;;;;;;6.12;39.32;100709.41;5554788;32;35368;-87
2022/03/02 15:16:39;;;;;;;;;;;;;;;6.07;38.83;100707.09;5553977;32;34423;-87
2022/03/02 15:19:44;;;;;;;;;;;;;;;5.97;39.03;100701.56;5552781;32;34605;-87
2022/03/02 15:22:47;;;;;;;;;;;;;;;5.98;39.15;100707.69;5554396;32;34995;-87
2022/03/02 15:25:50;;;;;;;;;;;;;;;5.87;39.28;100698.72;5554422;32;34774;-87
2022/03/02 15:29:00;;;;;;;;;;;;;;;5.84;38.94;100701.53;5538775;32;34968;-87
2022/03/02 15:32:05;;;;;;;;;;;;;;;5.81;39.52;100698.28;5544880;32;34680;-87
2022/03/02 15:35:19;;;;;;;;;;;;;;;5.69;39.81;100692.91;5556397;32;35359;-87
2022/03/02 15:38:22;;;;;;;;;;;;;;;5.66;40.06;100693.09;5557385;32;35189;-87
2022/03/02 15:41:27;;;;;;;;;;;;;;;5.60;40.22;100690.00;5554942;32;34725;-87
2022/03/02 15:44:30;;;;;;;;;;;;;;;5.53;40.22;100693.06;5555148;32;34720;-87
2022/03/02 15:47:37;;;;;;;;;;;;;;;5.50;40.28;100688.00;5557316;32;34870;-87
2022/03/02 15:50:45;;;;;;;;;;;;;;;5.35;41.24;100695.06;5552705;32;34642;-87
2022/03/02 15:53:50;;;;;;;;;;;;;;;5.27;41.57;100689.47;5535086;32;35048;-87
2022/03/02 15:56:54;;;;;;;;;;;;;;;5.18;41.42;100690.91;5535905;32;34652;-87
2022/03/02 16:00:14;;;;;;;;;;;;;;;5.09;41.93;100694.09;5537350;32;34675;-87
2022/03/02 16:03:24;;;;;;;;;;;;;;;5.01;42.19;100694.56;5538284;32;34914;-87